WetterOnline ( http://www.wetteronline.de )

Wetter aktuell Grabenstätt

Aktuelles Wetter: Chieming (553m)

6-stündlich | Neueste Meldungen
Ortszeit Temperatur Wetter
Sa, 16.02. 13:00 9.2° C leicht bewölkt
Sa, 16.02. 7:00 -1.9° C wolkig
Sa, 16.02. 1:00 -0.5° C leicht bewölkt
Fr, 15.02. 19:00 2.9° C wolkenlos
Fr, 15.02. 13:00 7.2° C leicht bewölkt
Fr, 15.02. 7:00 -1.7° C leicht bewölkt
Fr, 15.02. 1:00 -1.1° C wolkenlos
Do, 14.02. 19:00 2.2° C fast wolkenlos
Ortszeit Temperatur Wetter
Sa, 16.02. 18:00 7.8° C fast wolkenlos
Sa, 16.02. 17:50 7.8° C fast wolkenlos
Sa, 16.02. 17:40 8.6° C leicht bewölkt
Sa, 16.02. 17:30 9.6° C leicht bewölkt
Sa, 16.02. 17:20 9.6° C leicht bewölkt
Sa, 16.02. 17:10 9.3° C leicht bewölkt
Sa, 16.02. 17:00 9.3° C wolkenlos
Sa, 16.02. 16:30 10.0° C wolkenlos
Sa, 16.02. 16:00 10.4° C wolkenlos
Sa, 16.02. 15:30 10.6° C fast wolkenlos
Sa, 16.02. 15:00 10.6° C leicht bewölkt
Ortszeit Relative Feuchte Sichtweite
Sa, 16.02. 13:00 41% 14 km
Sa, 16.02. 7:00 80% 65 km
Sa, 16.02. 1:00 75% 35 km
Fr, 15.02. 19:00 71% 20 km
Fr, 15.02. 13:00 53% 15 km
Fr, 15.02. 7:00 88% 40 km
Fr, 15.02. 1:00 88% 30 km
Do, 14.02. 19:00 78% 13 km
Ortszeit Relative Feuchte Sichtweite
Sa, 16.02. 18:00 49% 25 km
Sa, 16.02. 17:50 49% -
Sa, 16.02. 17:40 47% -
Sa, 16.02. 17:30 43% 24 km
Sa, 16.02. 17:20 43% -
Sa, 16.02. 17:10 44% -
Sa, 16.02. 17:00 46% 21 km
Sa, 16.02. 16:30 43% 17 km
Sa, 16.02. 16:00 42% 25 km
Sa, 16.02. 15:30 39% 23 km
Sa, 16.02. 15:00 34% 22 km
Ortszeit Niederschlagsmenge Niederschlagsart
Sa, 16.02. 13:00 0.0 l/m2 in 6 Std. -
Sa, 16.02. 7:00 0.0 l/m2 in 12 Std. -
Sa, 16.02. 1:00 0.0 l/m2 in 6 Std. -
Fr, 15.02. 19:00 0.0 l/m2 in 12 Std. -
Fr, 15.02. 13:00 0.0 l/m2 in 6 Std. -
Fr, 15.02. 7:00 0.0 l/m2 in 12 Std. -
Fr, 15.02. 1:00 0.0 l/m2 in 6 Std. -
Do, 14.02. 19:00 0.0 l/m2 in 12 Std. -
Ortszeit Niederschlagsmenge Niederschlagsart
Sa, 16.02. 18:00 0.0 l/m2 in 1 Std. -
Sa, 16.02. 17:50 keine Meldung -
Sa, 16.02. 17:40 keine Meldung -
Sa, 16.02. 17:30 0.0 l/m2 in 1 Std. -
Sa, 16.02. 17:20 keine Meldung -
Sa, 16.02. 17:10 keine Meldung -
Sa, 16.02. 17:00 0.0 l/m2 in 1 Std. -
Sa, 16.02. 16:30 0.0 l/m2 in 1 Std. -
Sa, 16.02. 16:00 0.0 l/m2 in 1 Std. -
Sa, 16.02. 15:30 0.0 l/m2 in 1 Std. -
Sa, 16.02. 15:00 0.0 l/m2 in 1 Std. -
Ortszeit Stärke Spitze Richtung
km/h Bft. km/h Grad Sektor
Sa, 16.02. 13:00 4 1 18 350° N
Sa, 16.02. 7:00 0 0 11 - -
Sa, 16.02. 1:00 7 2 18 60° NO
Fr, 15.02. 19:00 7 2 18 80° O
Fr, 15.02. 13:00 6 1 17 270° W
Fr, 15.02. 7:00 6 1 13 80° O
Fr, 15.02. 1:00 4 1 11 100° O
Do, 14.02. 19:00 4 1 11 90° O
Ortszeit Stärke Spitze Richtung
km/h Bft. km/h Grad Sektor
Sa, 16.02. 18:00 7 2 11 110° O
Sa, 16.02. 17:50 7 2 - 110° O
Sa, 16.02. 17:40 7 2 - 110° O
Sa, 16.02. 17:30 6 1 7 110° O
Sa, 16.02. 17:20 6 1 - 110° O
Sa, 16.02. 17:10 4 1 - 90° O
Sa, 16.02. 17:00 4 1 7 80° O
Sa, 16.02. 16:30 6 1 7 60° NO
Sa, 16.02. 16:00 7 2 11 60° NO
Sa, 16.02. 15:30 7 2 11 60° NO
Sa, 16.02. 15:00 7 2 7 50° NO
Ortszeit Untergrenze Bedeckung Gattung
total tief tief mittel hoch
Sa, 16.02. 13:00 9000 m 8/8 0/8 - - -
Sa, 16.02. 7:00 9000 m 8/8 0/8 - - -
Sa, 16.02. 1:00 10500 m 6/8 0/8 - - -
Fr, 15.02. 19:00 - 0/8 0/8 - - -
Fr, 15.02. 13:00 10500 m 7/8 0/8 - - -
Fr, 15.02. 7:00 10500 m 3/8 0/8 - - -
Fr, 15.02. 1:00 - 0/8 0/8 - - -
Do, 14.02. 19:00 4500 m 1/8 1/8 - - -
Ortszeit Bedeckungsgrad in Achtel und Wolkenuntergrenze
Sa, 16.02. 18:00 1(9000m)
Sa, 16.02. 17:50 1(9000m)
Sa, 16.02. 17:40 3(9000m)
Sa, 16.02. 17:30 6(9000m)
Sa, 16.02. 17:20 6(9000m)
Sa, 16.02. 17:10 3(9000m)
Sa, 16.02. 17:00 keine Wolken
Sa, 16.02. 16:30 keine Wolken
Sa, 16.02. 16:00 keine Wolken
Sa, 16.02. 15:30 1(9000m)
Sa, 16.02. 15:00 8(9000m)
Ortszeit Luftdruck NN (hPa) Tendenz (hPa in 3 Std.)
Sa, 16.02. 13:00 1031 - 1,0
Sa, 16.02. 7:00 1033 + 0,6
Sa, 16.02. 1:00 1034 - 0,6
Fr, 15.02. 19:00 1034 - 0,6
Fr, 15.02. 13:00 1035 - 0,6
Fr, 15.02. 7:00 1038 - 0,6
Fr, 15.02. 1:00 1039 + 0,1
Do, 14.02. 19:00 1038 + 0,4
Ortszeit Luftdruck NN (hPa) Tendenz (hPa in 3 Std.)
Sa, 16.02. 18:00 1029 - 0,6
Sa, 16.02. 17:50 1029 keine Meldung
Sa, 16.02. 17:40 1029 keine Meldung
Sa, 16.02. 17:30 1029 - 0,9
Sa, 16.02. 17:20 1029 keine Meldung
Sa, 16.02. 17:10 1029 keine Meldung
Sa, 16.02. 17:00 1029 - 1,1
Sa, 16.02. 16:30 1029 - 1,3
Sa, 16.02. 16:00 1029 - 1,4
Sa, 16.02. 15:30 1029 - 1,5
Sa, 16.02. 15:00 1029 - 1,4
Ortszeit Schneehöhe (cm)
Sa, 16.02. 13:00 0
Sa, 16.02. 7:00 0
Sa, 16.02. 1:00 0
Fr, 15.02. 19:00 0
Fr, 15.02. 13:00 0
Fr, 15.02. 7:00 0
Fr, 15.02. 1:00 0
Do, 14.02. 19:00 0
Ortszeit Schneehöhe (cm)
Sa, 16.02. 18:00 0
Sa, 16.02. 17:50 0
Sa, 16.02. 17:40 0
Sa, 16.02. 17:30 0
Sa, 16.02. 17:20 0
Sa, 16.02. 17:10 0
Sa, 16.02. 17:00 0
Sa, 16.02. 16:30 0
Sa, 16.02. 16:00 0
Sa, 16.02. 15:30 0
Sa, 16.02. 15:00 0
Link zu dieser Seite / Seite empfehlen

Das Wetter in ...